sensor_id;sensor_type;location;lat;lon;timestamp;temperature;humidity
29687;DHT22;16599;47.078;15.536;2023-04-15T00:00:57;5.20;99.90
29687;DHT22;16599;47.078;15.536;2023-04-15T00:03:25;5.30;99.90
29687;DHT22;16599;47.078;15.536;2023-04-15T00:05:52;5.30;99.90
29687;DHT22;16599;47.078;15.536;2023-04-15T00:08:19;5.20;99.90
29687;DHT22;16599;47.078;15.536;2023-04-15T00:10:46;5.10;99.90
29687;DHT22;16599;47.078;15.536;2023-04-15T00:13:13;5.10;99.90
29687;DHT22;16599;47.078;15.536;2023-04-15T00:15:41;5.20;99.90
29687;DHT22;16599;47.078;15.536;2023-04-15T00:18:09;5.10;99.90
29687;DHT22;16599;47.078;15.536;2023-04-15T00:20:35;5.00;99.90
29687;DHT22;16599;47.078;15.536;2023-04-15T00:23:03;4.80;99.90
29687;DHT22;16599;47.078;15.536;2023-04-15T00:25:31;4.80;99.90
29687;DHT22;16599;47.078;15.536;2023-04-15T00:27:58;5.00;99.90
29687;DHT22;16599;47.078;15.536;2023-04-15T00:30:24;5.10;99.90
29687;DHT22;16599;47.078;15.536;2023-04-15T00:32:52;5.10;99.90
29687;DHT22;16599;47.078;15.536;2023-04-15T00:35:19;5.10;99.90
29687;DHT22;16599;47.078;15.536;2023-04-15T00:37:46;5.00;99.90
29687;DHT22;16599;47.078;15.536;2023-04-15T00:40:13;4.90;99.90
29687;DHT22;16599;47.078;15.536;2023-04-15T00:42:42;4.90;99.90
29687;DHT22;16599;47.078;15.536;2023-04-15T00:45:09;4.90;99.90
29687;DHT22;16599;47.078;15.536;2023-04-15T00:47:37;5.00;99.90
29687;DHT22;16599;47.078;15.536;2023-04-15T00:50:05;5.00;99.90
29687;DHT22;16599;47.078;15.536;2023-04-15T00:52:32;5.00;99.90
29687;DHT22;16599;47.078;15.536;2023-04-15T00:55:00;5.00;99.90
29687;DHT22;16599;47.078;15.536;2023-04-15T00:57:28;5.00;99.90
29687;DHT22;16599;47.078;15.536;2023-04-15T00:59:55;5.10;99.90
29687;DHT22;16599;47.078;15.536;2023-04-15T01:02:22;5.10;99.90
29687;DHT22;16599;47.078;15.536;2023-04-15T01:04:50;5.00;99.90
29687;DHT22;16599;47.078;15.536;2023-04-15T01:07:17;5.00;99.90
29687;DHT22;16599;47.078;15.536;2023-04-15T01:09:45;4.90;99.90
29687;DHT22;16599;47.078;15.536;2023-04-15T01:12:13;4.90;99.90
29687;DHT22;16599;47.078;15.536;2023-04-15T01:14:41;4.90;99.90
29687;DHT22;16599;47.078;15.536;2023-04-15T01:17:08;4.90;99.90
29687;DHT22;16599;47.078;15.536;2023-04-15T01:19:35;5.00;99.90
29687;DHT22;16599;47.078;15.536;2023-04-15T01:22:02;5.00;99.90
29687;DHT22;16599;47.078;15.536;2023-04-15T01:24:31;4.90;99.90
29687;DHT22;16599;47.078;15.536;2023-04-15T01:26:58;4.90;99.90
29687;DHT22;16599;47.078;15.536;2023-04-15T01:29:25;4.90;99.90
29687;DHT22;16599;47.078;15.536;2023-04-15T01:31:54;5.00;99.90
29687;DHT22;16599;47.078;15.536;2023-04-15T01:34:22;5.00;99.90
29687;DHT22;16599;47.078;15.536;2023-04-15T01:36:49;5.00;99.90
29687;DHT22;16599;47.078;15.536;2023-04-15T01:39:15;5.00;99.90
29687;DHT22;16599;47.078;15.536;2023-04-15T01:41:42;4.90;99.90
29687;DHT22;16599;47.078;15.536;2023-04-15T01:44:09;5.00;99.90
29687;DHT22;16599;47.078;15.536;2023-04-15T01:46:36;5.00;99.90
29687;DHT22;16599;47.078;15.536;2023-04-15T01:49:03;5.10;99.90
29687;DHT22;16599;47.078;15.536;2023-04-15T01:51:30;5.00;99.90
29687;DHT22;16599;47.078;15.536;2023-04-15T01:53:57;5.00;99.90
29687;DHT22;16599;47.078;15.536;2023-04-15T01:56:24;4.90;99.90
29687;DHT22;16599;47.078;15.536;2023-04-15T01:58:52;4.90;99.90
29687;DHT22;16599;47.078;15.536;2023-04-15T02:01:19;4.90;99.90
29687;DHT22;16599;47.078;15.536;2023-04-15T02:03:46;4.90;99.90
29687;DHT22;16599;47.078;15.536;2023-04-15T02:06:14;4.90;99.90
29687;DHT22;16599;47.078;15.536;2023-04-15T02:08:40;4.80;99.90
29687;DHT22;16599;47.078;15.536;2023-04-15T02:11:07;4.80;99.90
29687;DHT22;16599;47.078;15.536;2023-04-15T02:13:34;4.70;99.90
29687;DHT22;16599;47.078;15.536;2023-04-15T02:16:02;4.80;99.90
29687;DHT22;16599;47.078;15.536;2023-04-15T02:18:29;4.80;99.90
29687;DHT22;16599;47.078;15.536;2023-04-15T02:20:56;4.80;99.90
29687;DHT22;16599;47.078;15.536;2023-04-15T02:23:24;4.80;99.90
29687;DHT22;16599;47.078;15.536;2023-04-15T02:25:51;4.80;99.90
29687;DHT22;16599;47.078;15.536;2023-04-15T02:28:20;4.80;99.90
29687;DHT22;16599;47.078;15.536;2023-04-15T02:30:48;4.80;99.90
29687;DHT22;16599;47.078;15.536;2023-04-15T02:33:20;4.80;99.90
29687;DHT22;16599;47.078;15.536;2023-04-15T02:35:47;4.80;99.90
29687;DHT22;16599;47.078;15.536;2023-04-15T02:38:14;4.80;99.90
29687;DHT22;16599;47.078;15.536;2023-04-15T02:40:43;4.80;99.90
29687;DHT22;16599;47.078;15.536;2023-04-15T02:43:10;4.70;99.90
29687;DHT22;16599;47.078;15.536;2023-04-15T02:45:37;4.70;99.90
29687;DHT22;16599;47.078;15.536;2023-04-15T02:48:04;4.70;99.90
29687;DHT22;16599;47.078;15.536;2023-04-15T02:50:32;4.70;99.90
29687;DHT22;16599;47.078;15.536;2023-04-15T02:52:59;4.70;99.90
29687;DHT22;16599;47.078;15.536;2023-04-15T02:55:29;4.70;99.90
29687;DHT22;16599;47.078;15.536;2023-04-15T02:57:56;4.80;99.90
29687;DHT22;16599;47.078;15.536;2023-04-15T03:00:25;4.80;99.90
29687;DHT22;16599;47.078;15.536;2023-04-15T03:02:58;4.80;99.90
29687;DHT22;16599;47.078;15.536;2023-04-15T03:05:25;4.80;99.90
29687;DHT22;16599;47.078;15.536;2023-04-15T03:07:52;4.80;99.90
29687;DHT22;16599;47.078;15.536;2023-04-15T03:10:20;4.80;99.90
29687;DHT22;16599;47.078;15.536;2023-04-15T03:12:47;4.80;99.90
29687;DHT22;16599;47.078;15.536;2023-04-15T03:15:14;4.80;99.90
29687;DHT22;16599;47.078;15.536;2023-04-15T03:17:42;4.80;99.90
29687;DHT22;16599;47.078;15.536;2023-04-15T03:20:09;4.80;99.90
29687;DHT22;16599;47.078;15.536;2023-04-15T03:22:36;4.80;99.90
29687;DHT22;16599;47.078;15.536;2023-04-15T03:25:03;4.80;99.90
29687;DHT22;16599;47.078;15.536;2023-04-15T03:27:30;4.80;99.90
29687;DHT22;16599;47.078;15.536;2023-04-15T03:29:57;4.80;99.90
29687;DHT22;16599;47.078;15.536;2023-04-15T03:32:24;4.70;99.90
29687;DHT22;16599;47.078;15.536;2023-04-15T03:34:51;4.70;99.90
29687;DHT22;16599;47.078;15.536;2023-04-15T03:37:18;4.80;99.90
29687;DHT22;16599;47.078;15.536;2023-04-15T03:39:45;4.80;99.90
29687;DHT22;16599;47.078;15.536;2023-04-15T03:42:12;4.80;99.90
29687;DHT22;16599;47.078;15.536;2023-04-15T03:44:39;4.70;99.90
29687;DHT22;16599;47.078;15.536;2023-04-15T03:47:06;4.70;99.90
29687;DHT22;16599;47.078;15.536;2023-04-15T03:49:33;4.80;99.90
29687;DHT22;16599;47.078;15.536;2023-04-15T03:51:59;4.80;99.90
29687;DHT22;16599;47.078;15.536;2023-04-15T03:54:26;4.90;99.90
29687;DHT22;16599;47.078;15.536;2023-04-15T03:56:53;4.90;99.90
29687;DHT22;16599;47.078;15.536;2023-04-15T03:59:21;4.90;99.90
29687;DHT22;16599;47.078;15.536;2023-04-15T04:01:48;4.90;99.90
29687;DHT22;16599;47.078;15.536;2023-04-15T04:04:15;4.90;99.90
29687;DHT22;16599;47.078;15.536;2023-04-15T04:06:42;4.80;99.90
29687;DHT22;16599;47.078;15.536;2023-04-15T04:09:09;4.80;99.90
29687;DHT22;16599;47.078;15.536;2023-04-15T04:11:36;4.80;99.90
29687;DHT22;16599;47.078;15.536;2023-04-15T04:14:03;4.90;99.90
29687;DHT22;16599;47.078;15.536;2023-04-15T04:16:30;4.90;99.90
29687;DHT22;16599;47.078;15.536;2023-04-15T04:18:57;4.90;99.90
29687;DHT22;16599;47.078;15.536;2023-04-15T04:21:23;4.90;99.90
29687;DHT22;16599;47.078;15.536;2023-04-15T04:23:50;4.90;99.90
29687;DHT22;16599;47.078;15.536;2023-04-15T04:26:17;4.80;99.90
29687;DHT22;16599;47.078;15.536;2023-04-15T04:28:45;4.90;99.90
29687;DHT22;16599;47.078;15.536;2023-04-15T04:31:12;4.80;99.90
29687;DHT22;16599;47.078;15.536;2023-04-15T04:33:39;4.80;99.90
29687;DHT22;16599;47.078;15.536;2023-04-15T04:36:06;4.80;99.90
29687;DHT22;16599;47.078;15.536;2023-04-15T04:38:33;4.80;99.90
29687;DHT22;16599;47.078;15.536;2023-04-15T04:40:59;4.80;99.90
29687;DHT22;16599;47.078;15.536;2023-04-15T04:43:26;4.80;99.90
29687;DHT22;16599;47.078;15.536;2023-04-15T04:45:54;4.90;99.90
29687;DHT22;16599;47.078;15.536;2023-04-15T04:48:21;4.90;99.90
29687;DHT22;16599;47.078;15.536;2023-04-15T04:50:48;4.90;99.90
29687;DHT22;16599;47.078;15.536;2023-04-15T04:53:15;4.80;99.90
29687;DHT22;16599;47.078;15.536;2023-04-15T04:55:43;4.80;99.90
29687;DHT22;16599;47.078;15.536;2023-04-15T04:58:10;4.90;99.90
29687;DHT22;16599;47.078;15.536;2023-04-15T05:00:37;4.90;99.90
29687;DHT22;16599;47.078;15.536;2023-04-15T05:03:04;4.90;99.90
29687;DHT22;16599;47.078;15.536;2023-04-15T05:05:31;4.90;99.90
29687;DHT22;16599;47.078;15.536;2023-04-15T05:07:57;5.00;99.90
29687;DHT22;16599;47.078;15.536;2023-04-15T05:10:24;4.90;99.90
29687;DHT22;16599;47.078;15.536;2023-04-15T05:12:51;4.90;99.90
29687;DHT22;16599;47.078;15.536;2023-04-15T05:15:18;4.90;99.90
29687;DHT22;16599;47.078;15.536;2023-04-15T05:17:45;5.00;99.90
29687;DHT22;16599;47.078;15.536;2023-04-15T05:20:12;5.00;99.90
29687;DHT22;16599;47.078;15.536;2023-04-15T05:22:40;5.00;99.90
29687;DHT22;16599;47.078;15.536;2023-04-15T05:25:07;5.00;99.90
29687;DHT22;16599;47.078;15.536;2023-04-15T05:27:34;5.00;99.90
29687;DHT22;16599;47.078;15.536;2023-04-15T05:30:01;5.00;99.90
29687;DHT22;16599;47.078;15.536;2023-04-15T05:32:28;5.00;99.90
29687;DHT22;16599;47.078;15.536;2023-04-15T05:34:55;5.00;99.90
29687;DHT22;16599;47.078;15.536;2023-04-15T05:37:22;5.10;99.90
29687;DHT22;16599;47.078;15.536;2023-04-15T05:39:49;5.00;99.90
29687;DHT22;16599;47.078;15.536;2023-04-15T05:42:15;5.10;99.90
29687;DHT22;16599;47.078;15.536;2023-04-15T05:44:42;5.10;99.90
29687;DHT22;16599;47.078;15.536;2023-04-15T05:47:09;5.10;99.90
29687;DHT22;16599;47.078;15.536;2023-04-15T05:49:36;5.10;99.90
29687;DHT22;16599;47.078;15.536;2023-04-15T05:52:03;5.10;99.90
29687;DHT22;16599;47.078;15.536;2023-04-15T05:54:30;5.10;99.90
29687;DHT22;16599;47.078;15.536;2023-04-15T05:56:57;5.10;99.90
29687;DHT22;16599;47.078;15.536;2023-04-15T05:59:24;5.10;99.90
29687;DHT22;16599;47.078;15.536;2023-04-15T06:01:51;5.20;99.90
29687;DHT22;16599;47.078;15.536;2023-04-15T06:04:18;5.20;99.90
29687;DHT22;16599;47.078;15.536;2023-04-15T06:06:45;5.20;99.90
29687;DHT22;16599;47.078;15.536;2023-04-15T06:09:12;5.30;99.90
29687;DHT22;16599;47.078;15.536;2023-04-15T06:11:39;5.30;99.90
29687;DHT22;16599;47.078;15.536;2023-04-15T06:14:06;5.30;99.90
29687;DHT22;16599;47.078;15.536;2023-04-15T06:16:33;5.30;99.90
29687;DHT22;16599;47.078;15.536;2023-04-15T06:19:02;5.20;99.90
29687;DHT22;16599;47.078;15.536;2023-04-15T06:21:29;5.40;99.90
29687;DHT22;16599;47.078;15.536;2023-04-15T06:23:58;5.40;99.90
29687;DHT22;16599;47.078;15.536;2023-04-15T06:26:27;5.40;99.90
29687;DHT22;16599;47.078;15.536;2023-04-15T06:28:54;5.50;99.90
29687;DHT22;16599;47.078;15.536;2023-04-15T06:31:21;5.60;99.90
29687;DHT22;16599;47.078;15.536;2023-04-15T06:33:48;5.60;99.90
29687;DHT22;16599;47.078;15.536;2023-04-15T06:36:15;5.60;99.90
29687;DHT22;16599;47.078;15.536;2023-04-15T06:38:42;5.70;99.90
29687;DHT22;16599;47.078;15.536;2023-04-15T06:41:09;5.70;99.90
29687;DHT22;16599;47.078;15.536;2023-04-15T06:43:36;5.70;99.90
29687;DHT22;16599;47.078;15.536;2023-04-15T06:46:03;5.70;99.90
29687;DHT22;16599;47.078;15.536;2023-04-15T06:48:36;5.70;99.90
29687;DHT22;16599;47.078;15.536;2023-04-15T06:51:03;5.70;99.90
29687;DHT22;16599;47.078;15.536;2023-04-15T06:53:30;5.70;99.90
29687;DHT22;16599;47.078;15.536;2023-04-15T06:55:57;5.70;99.90
29687;DHT22;16599;47.078;15.536;2023-04-15T06:58:24;5.70;99.90
29687;DHT22;16599;47.078;15.536;2023-04-15T07:00:52;5.70;99.90
29687;DHT22;16599;47.078;15.536;2023-04-15T07:03:18;5.70;99.90
29687;DHT22;16599;47.078;15.536;2023-04-15T07:05:45;5.70;99.90
29687;DHT22;16599;47.078;15.536;2023-04-15T07:08:12;5.70;99.90
29687;DHT22;16599;47.078;15.536;2023-04-15T07:10:39;5.70;99.90
29687;DHT22;16599;47.078;15.536;2023-04-15T07:13:07;5.80;99.90
29687;DHT22;16599;47.078;15.536;2023-04-15T07:15:34;5.80;99.90
29687;DHT22;16599;47.078;15.536;2023-04-15T07:18:01;5.90;99.90
29687;DHT22;16599;47.078;15.536;2023-04-15T07:20:28;5.90;99.90
29687;DHT22;16599;47.078;15.536;2023-04-15T07:22:55;5.90;99.90
29687;DHT22;16599;47.078;15.536;2023-04-15T07:25:22;6.00;99.90
29687;DHT22;16599;47.078;15.536;2023-04-15T07:27:49;6.00;99.90
29687;DHT22;16599;47.078;15.536;2023-04-15T07:30:16;6.00;99.90
29687;DHT22;16599;47.078;15.536;2023-04-15T07:32:42;6.00;99.90
29687;DHT22;16599;47.078;15.536;2023-04-15T07:35:09;6.00;99.90
29687;DHT22;16599;47.078;15.536;2023-04-15T07:37:37;6.00;99.90
29687;DHT22;16599;47.078;15.536;2023-04-15T07:40:04;6.10;99.90
29687;DHT22;16599;47.078;15.536;2023-04-15T07:42:33;6.00;99.90
29687;DHT22;16599;47.078;15.536;2023-04-15T07:45:00;6.20;99.90
29687;DHT22;16599;47.078;15.536;2023-04-15T07:47:27;6.20;99.90
29687;DHT22;16599;47.078;15.536;2023-04-15T07:49:54;6.30;99.90
29687;DHT22;16599;47.078;15.536;2023-04-15T07:52:20;6.20;99.90
29687;DHT22;16599;47.078;15.536;2023-04-15T07:54:47;6.20;99.90
29687;DHT22;16599;47.078;15.536;2023-04-15T07:57:14;6.20;99.90
29687;DHT22;16599;47.078;15.536;2023-04-15T07:59:42;6.30;99.90
29687;DHT22;16599;47.078;15.536;2023-04-15T08:02:10;6.40;99.90
29687;DHT22;16599;47.078;15.536;2023-04-15T08:04:37;6.50;99.90
29687;DHT22;16599;47.078;15.536;2023-04-15T08:07:05;6.50;99.90
29687;DHT22;16599;47.078;15.536;2023-04-15T08:09:32;6.60;99.90
29687;DHT22;16599;47.078;15.536;2023-04-15T08:11:59;6.40;99.90
29687;DHT22;16599;47.078;15.536;2023-04-15T08:14:28;6.50;99.90
29687;DHT22;16599;47.078;15.536;2023-04-15T08:16:55;6.50;99.90
29687;DHT22;16599;47.078;15.536;2023-04-15T08:19:21;6.70;99.90
29687;DHT22;16599;47.078;15.536;2023-04-15T08:21:50;6.80;99.90
29687;DHT22;16599;47.078;15.536;2023-04-15T08:24:17;6.70;99.90
29687;DHT22;16599;47.078;15.536;2023-04-15T08:26:44;6.60;99.90
29687;DHT22;16599;47.078;15.536;2023-04-15T08:29:12;6.70;99.90
29687;DHT22;16599;47.078;15.536;2023-04-15T08:31:39;6.80;99.90
29687;DHT22;16599;47.078;15.536;2023-04-15T08:34:06;6.80;99.90
29687;DHT22;16599;47.078;15.536;2023-04-15T08:36:33;6.80;99.90
29687;DHT22;16599;47.078;15.536;2023-04-15T08:39:00;6.90;99.90
29687;DHT22;16599;47.078;15.536;2023-04-15T08:41:34;7.00;99.90
29687;DHT22;16599;47.078;15.536;2023-04-15T08:44:05;6.90;99.90
29687;DHT22;16599;47.078;15.536;2023-04-15T08:46:32;6.90;99.90
29687;DHT22;16599;47.078;15.536;2023-04-15T08:49:03;7.00;99.90
29687;DHT22;16599;47.078;15.536;2023-04-15T08:51:31;7.00;99.90
29687;DHT22;16599;47.078;15.536;2023-04-15T08:53:59;7.10;99.90
29687;DHT22;16599;47.078;15.536;2023-04-15T08:56:30;7.10;99.90
29687;DHT22;16599;47.078;15.536;2023-04-15T08:59:01;7.30;99.90
29687;DHT22;16599;47.078;15.536;2023-04-15T09:01:28;7.30;99.90
29687;DHT22;16599;47.078;15.536;2023-04-15T09:03:55;7.30;99.90
29687;DHT22;16599;47.078;15.536;2023-04-15T09:06:23;7.30;99.90
29687;DHT22;16599;47.078;15.536;2023-04-15T09:08:51;7.40;99.90
29687;DHT22;16599;47.078;15.536;2023-04-15T09:11:18;7.60;99.90
29687;DHT22;16599;47.078;15.536;2023-04-15T09:13:47;7.50;99.90
29687;DHT22;16599;47.078;15.536;2023-04-15T09:16:14;7.50;99.90
29687;DHT22;16599;47.078;15.536;2023-04-15T09:18:42;7.70;99.90
29687;DHT22;16599;47.078;15.536;2023-04-15T09:21:14;7.80;99.90
29687;DHT22;16599;47.078;15.536;2023-04-15T09:23:57;7.80;99.90
29687;DHT22;16599;47.078;15.536;2023-04-15T09:26:35;7.80;99.90
29687;DHT22;16599;47.078;15.536;2023-04-15T09:29:10;8.00;99.90
29687;DHT22;16599;47.078;15.536;2023-04-15T09:31:40;8.10;99.90
29687;DHT22;16599;47.078;15.536;2023-04-15T09:34:08;8.10;99.90
29687;DHT22;16599;47.078;15.536;2023-04-15T09:36:54;8.30;99.90
29687;DHT22;16599;47.078;15.536;2023-04-15T09:39:21;8.40;99.90
29687;DHT22;16599;47.078;15.536;2023-04-15T09:42:07;8.30;99.90
29687;DHT22;16599;47.078;15.536;2023-04-15T09:44:34;8.40;99.90
29687;DHT22;16599;47.078;15.536;2023-04-15T09:47:01;8.30;99.90
29687;DHT22;16599;47.078;15.536;2023-04-15T09:49:28;8.40;99.90
29687;DHT22;16599;47.078;15.536;2023-04-15T09:52:02;8.30;99.90
29687;DHT22;16599;47.078;15.536;2023-04-15T09:54:36;8.30;99.90
29687;DHT22;16599;47.078;15.536;2023-04-15T09:57:08;8.20;99.90
29687;DHT22;16599;47.078;15.536;2023-04-15T09:59:36;8.30;99.90
29687;DHT22;16599;47.078;15.536;2023-04-15T10:02:06;8.30;99.90
29687;DHT22;16599;47.078;15.536;2023-04-15T10:04:35;8.50;99.90
29687;DHT22;16599;47.078;15.536;2023-04-15T10:07:04;8.60;99.90
29687;DHT22;16599;47.078;15.536;2023-04-15T10:09:32;8.40;99.90
29687;DHT22;16599;47.078;15.536;2023-04-15T10:12:02;8.40;99.90
29687;DHT22;16599;47.078;15.536;2023-04-15T10:14:33;8.50;99.90
29687;DHT22;16599;47.078;15.536;2023-04-15T10:17:01;8.50;99.90
29687;DHT22;16599;47.078;15.536;2023-04-15T10:19:31;8.40;99.90
29687;DHT22;16599;47.078;15.536;2023-04-15T10:21:59;8.40;99.90
29687;DHT22;16599;47.078;15.536;2023-04-15T10:24:26;8.40;99.90
29687;DHT22;16599;47.078;15.536;2023-04-15T10:26:53;8.40;99.90
29687;DHT22;16599;47.078;15.536;2023-04-15T10:29:21;8.50;99.90
29687;DHT22;16599;47.078;15.536;2023-04-15T10:31:49;8.60;99.90
29687;DHT22;16599;47.078;15.536;2023-04-15T10:34:17;8.70;99.90
29687;DHT22;16599;47.078;15.536;2023-04-15T10:36:44;8.70;99.90
29687;DHT22;16599;47.078;15.536;2023-04-15T10:44:43;8.70;99.90
29687;DHT22;16599;47.078;15.536;2023-04-15T10:47:13;8.80;99.90
29687;DHT22;16599;47.078;15.536;2023-04-15T10:49:50;8.70;99.90
29687;DHT22;16599;47.078;15.536;2023-04-15T10:52:22;8.90;99.90
29687;DHT22;16599;47.078;15.536;2023-04-15T10:55:22;9.00;99.90
29687;DHT22;16599;47.078;15.536;2023-04-15T10:57:54;8.90;99.90
29687;DHT22;16599;47.078;15.536;2023-04-15T11:00:25;8.90;99.90
29687;DHT22;16599;47.078;15.536;2023-04-15T11:03:05;9.10;99.90
29687;DHT22;16599;47.078;15.536;2023-04-15T11:05:51;9.00;99.90
29687;DHT22;16599;47.078;15.536;2023-04-15T11:08:19;9.00;99.90
29687;DHT22;16599;47.078;15.536;2023-04-15T11:13:19;9.00;99.90
29687;DHT22;16599;47.078;15.536;2023-04-15T11:15:48;9.00;99.90
29687;DHT22;16599;47.078;15.536;2023-04-15T11:18:20;9.00;99.90
29687;DHT22;16599;47.078;15.536;2023-04-15T11:20:49;9.00;99.90
29687;DHT22;16599;47.078;15.536;2023-04-15T11:23:46;8.90;99.90
29687;DHT22;16599;47.078;15.536;2023-04-15T11:26:13;8.80;99.90
29687;DHT22;16599;47.078;15.536;2023-04-15T11:28:42;8.50;99.90
29687;DHT22;16599;47.078;15.536;2023-04-15T11:31:12;8.60;99.90
29687;DHT22;16599;47.078;15.536;2023-04-15T11:34:09;8.70;99.90
29687;DHT22;16599;47.078;15.536;2023-04-15T11:36:36;8.70;99.90
29687;DHT22;16599;47.078;15.536;2023-04-15T11:39:06;8.70;99.90
29687;DHT22;16599;47.078;15.536;2023-04-15T11:41:34;8.80;99.90
29687;DHT22;16599;47.078;15.536;2023-04-15T11:44:01;8.90;99.90
29687;DHT22;16599;47.078;15.536;2023-04-15T11:46:29;8.80;99.90
29687;DHT22;16599;47.078;15.536;2023-04-15T11:48:57;8.90;99.90
29687;DHT22;16599;47.078;15.536;2023-04-15T11:51:24;8.90;99.90
29687;DHT22;16599;47.078;15.536;2023-04-15T11:53:51;8.90;99.90
29687;DHT22;16599;47.078;15.536;2023-04-15T11:56:22;9.00;99.90
29687;DHT22;16599;47.078;15.536;2023-04-15T11:58:54;9.10;99.90
29687;DHT22;16599;47.078;15.536;2023-04-15T12:01:37;9.00;99.90
29687;DHT22;16599;47.078;15.536;2023-04-15T12:04:31;9.00;99.90
29687;DHT22;16599;47.078;15.536;2023-04-15T12:07:05;9.00;99.90
29687;DHT22;16599;47.078;15.536;2023-04-15T12:09:36;9.00;99.90
29687;DHT22;16599;47.078;15.536;2023-04-15T12:12:03;9.20;99.90
29687;DHT22;16599;47.078;15.536;2023-04-15T12:14:31;9.20;99.90
29687;DHT22;16599;47.078;15.536;2023-04-15T12:17:02;9.10;99.90
29687;DHT22;16599;47.078;15.536;2023-04-15T12:19:41;9.20;99.90
29687;DHT22;16599;47.078;15.536;2023-04-15T12:22:10;9.00;99.90
29687;DHT22;16599;47.078;15.536;2023-04-15T12:24:38;9.10;99.90
29687;DHT22;16599;47.078;15.536;2023-04-15T12:27:09;8.90;99.90
29687;DHT22;16599;47.078;15.536;2023-04-15T12:29:37;9.00;99.90
29687;DHT22;16599;47.078;15.536;2023-04-15T12:32:11;9.10;99.90
29687;DHT22;16599;47.078;15.536;2023-04-15T12:34:40;9.20;99.90
29687;DHT22;16599;47.078;15.536;2023-04-15T12:37:09;9.10;99.90
29687;DHT22;16599;47.078;15.536;2023-04-15T12:39:38;9.00;99.90
29687;DHT22;16599;47.078;15.536;2023-04-15T12:42:06;9.10;99.90
29687;DHT22;16599;47.078;15.536;2023-04-15T12:44:34;9.30;99.90
29687;DHT22;16599;47.078;15.536;2023-04-15T12:47:01;9.40;99.90
29687;DHT22;16599;47.078;15.536;2023-04-15T12:49:31;9.50;99.90
29687;DHT22;16599;47.078;15.536;2023-04-15T12:51:59;9.60;99.90
29687;DHT22;16599;47.078;15.536;2023-04-15T12:54:27;9.60;99.90
29687;DHT22;16599;47.078;15.536;2023-04-15T12:56:55;9.60;99.90
29687;DHT22;16599;47.078;15.536;2023-04-15T12:59:22;9.40;99.90
29687;DHT22;16599;47.078;15.536;2023-04-15T13:01:50;9.50;99.90
29687;DHT22;16599;47.078;15.536;2023-04-15T13:04:19;9.40;99.90
29687;DHT22;16599;47.078;15.536;2023-04-15T13:06:47;9.40;99.90
29687;DHT22;16599;47.078;15.536;2023-04-15T13:09:14;9.50;99.90
29687;DHT22;16599;47.078;15.536;2023-04-15T13:11:41;9.50;99.90
29687;DHT22;16599;47.078;15.536;2023-04-15T13:14:09;9.50;99.90
29687;DHT22;16599;47.078;15.536;2023-04-15T13:16:37;9.60;99.90
29687;DHT22;16599;47.078;15.536;2023-04-15T13:19:04;9.70;99.90
29687;DHT22;16599;47.078;15.536;2023-04-15T13:21:31;9.60;99.90
29687;DHT22;16599;47.078;15.536;2023-04-15T13:24:02;9.60;99.90
29687;DHT22;16599;47.078;15.536;2023-04-15T13:26:29;9.70;99.90
29687;DHT22;16599;47.078;15.536;2023-04-15T13:28:57;9.50;99.90
29687;DHT22;16599;47.078;15.536;2023-04-15T13:31:24;9.30;99.90
29687;DHT22;16599;47.078;15.536;2023-04-15T13:33:51;9.20;99.90
29687;DHT22;16599;47.078;15.536;2023-04-15T13:36:18;9.30;99.90
29687;DHT22;16599;47.078;15.536;2023-04-15T13:38:45;9.20;99.90
29687;DHT22;16599;47.078;15.536;2023-04-15T13:41:14;9.20;99.90
29687;DHT22;16599;47.078;15.536;2023-04-15T13:43:41;9.00;99.90
29687;DHT22;16599;47.078;15.536;2023-04-15T13:46:08;8.70;99.90
29687;DHT22;16599;47.078;15.536;2023-04-15T13:48:35;8.70;99.90
29687;DHT22;16599;47.078;15.536;2023-04-15T13:51:02;8.70;99.90
29687;DHT22;16599;47.078;15.536;2023-04-15T13:53:28;8.60;99.90
29687;DHT22;16599;47.078;15.536;2023-04-15T13:56:06;8.50;99.90
29687;DHT22;16599;47.078;15.536;2023-04-15T13:58:54;8.60;99.90
29687;DHT22;16599;47.078;15.536;2023-04-15T14:01:24;8.20;99.90
29687;DHT22;16599;47.078;15.536;2023-04-15T14:06:46;8.20;99.90
29687;DHT22;16599;47.078;15.536;2023-04-15T14:09:12;8.10;99.90
29687;DHT22;16599;47.078;15.536;2023-04-15T14:11:40;8.20;99.90
29687;DHT22;16599;47.078;15.536;2023-04-15T14:14:07;8.30;99.90
29687;DHT22;16599;47.078;15.536;2023-04-15T14:16:33;8.20;99.90
29687;DHT22;16599;47.078;15.536;2023-04-15T14:19:01;7.90;99.90
29687;DHT22;16599;47.078;15.536;2023-04-15T14:21:29;7.90;99.90
29687;DHT22;16599;47.078;15.536;2023-04-15T14:23:57;7.90;99.90
29687;DHT22;16599;47.078;15.536;2023-04-15T14:26:24;8.00;99.90
29687;DHT22;16599;47.078;15.536;2023-04-15T14:28:51;8.30;99.90
29687;DHT22;16599;47.078;15.536;2023-04-15T14:31:18;8.40;99.90
29687;DHT22;16599;47.078;15.536;2023-04-15T14:33:45;8.50;99.90
29687;DHT22;16599;47.078;15.536;2023-04-15T14:36:12;8.60;99.90
29687;DHT22;16599;47.078;15.536;2023-04-15T14:38:39;8.70;99.90
29687;DHT22;16599;47.078;15.536;2023-04-15T14:41:06;8.80;99.90
29687;DHT22;16599;47.078;15.536;2023-04-15T14:43:34;8.60;99.90
29687;DHT22;16599;47.078;15.536;2023-04-15T14:46:01;8.60;99.90
29687;DHT22;16599;47.078;15.536;2023-04-15T14:48:28;8.70;99.90
29687;DHT22;16599;47.078;15.536;2023-04-15T14:50:56;8.60;99.90
29687;DHT22;16599;47.078;15.536;2023-04-15T14:53:23;8.50;99.90
29687;DHT22;16599;47.078;15.536;2023-04-15T14:55:50;8.60;99.90
29687;DHT22;16599;47.078;15.536;2023-04-15T14:58:17;8.50;99.90
29687;DHT22;16599;47.078;15.536;2023-04-15T15:00:44;8.50;99.90
29687;DHT22;16599;47.078;15.536;2023-04-15T15:03:11;8.50;99.90
29687;DHT22;16599;47.078;15.536;2023-04-15T15:05:39;8.60;99.90
29687;DHT22;16599;47.078;15.536;2023-04-15T15:08:07;8.60;99.90
29687;DHT22;16599;47.078;15.536;2023-04-15T15:10:35;8.70;99.90
29687;DHT22;16599;47.078;15.536;2023-04-15T15:13:15;8.60;99.90
29687;DHT22;16599;47.078;15.536;2023-04-15T15:15:42;8.60;99.90
29687;DHT22;16599;47.078;15.536;2023-04-15T15:18:10;8.60;99.90
29687;DHT22;16599;47.078;15.536;2023-04-15T15:20:37;8.60;99.90
29687;DHT22;16599;47.078;15.536;2023-04-15T15:23:04;8.70;99.90
29687;DHT22;16599;47.078;15.536;2023-04-15T15:25:31;8.70;99.90
29687;DHT22;16599;47.078;15.536;2023-04-15T15:27:57;8.80;99.90
29687;DHT22;16599;47.078;15.536;2023-04-15T15:30:24;8.90;99.90
29687;DHT22;16599;47.078;15.536;2023-04-15T15:32:51;8.90;99.90
29687;DHT22;16599;47.078;15.536;2023-04-15T15:35:18;8.80;99.90
29687;DHT22;16599;47.078;15.536;2023-04-15T15:37:45;8.80;99.90
29687;DHT22;16599;47.078;15.536;2023-04-15T15:40:12;8.80;99.90
29687;DHT22;16599;47.078;15.536;2023-04-15T15:42:39;8.90;99.90
29687;DHT22;16599;47.078;15.536;2023-04-15T15:45:06;8.90;99.90
29687;DHT22;16599;47.078;15.536;2023-04-15T15:47:33;8.80;99.90